Time;durP1;ratioP1;P1;durP2;ratioP2;P2;SDS_P1;SDS_P2;PMS_P1;PMS_P2;Temp;Humidity;BMP_temperature;BMP_pressure;BME280_temperature;BME280_humidity;BME280_pressure;Samples;Min_cycle;Max_cycle;Signal;HPM_P1;HPM_P2
2021/09/10 00:00:34;;;;;;;11.60;2.80;;;42.80;32.40;;;;;;5117134;27;20092;-48
2021/09/10 00:03:01;;;;;;;14.02;2.90;;;42.70;31.40;;;;;;5114603;27;20069;-50
2021/09/10 00:05:27;;;;;;;24.05;4.03;;;42.60;31.60;;;;;;5113657;27;20187;-51
2021/09/10 00:07:54;;;;;;;14.57;3.33;;;42.50;32.50;;;;;;5113695;27;20067;-49
2021/09/10 00:10:20;;;;;;;14.77;2.90;;;42.40;33.10;;;;;;5111446;27;20069;-52
2021/09/10 00:12:47;;;;;;;19.27;3.42;;;42.30;32.30;;;;;;5119107;27;20063;-52
2021/09/10 00:15:13;;;;;;;14.23;2.53;;;42.20;32.50;;;;;;5116441;27;20101;-50
2021/09/10 00:17:40;;;;;;;17.42;3.38;;;42.10;32.80;;;;;;5112116;27;20055;-51
2021/09/10 00:20:07;;;;;;;18.83;2.85;;;42.10;32.70;;;;;;5113924;27;20158;-52
2021/09/10 00:22:35;;;;;;;15.70;3.40;;;42.00;33.40;;;;;;5114654;27;20069;-51
2021/09/10 00:25:02;;;;;;;22.30;3.53;;;42.00;33.90;;;;;;5115400;27;20457;-49
2021/09/10 00:27:28;;;;;;;16.00;2.97;;;41.90;33.60;;;;;;5118387;27;20213;-50
2021/09/10 00:29:55;;;;;;;10.93;2.85;;;41.90;33.80;;;;;;5116650;27;20380;-47
2021/09/10 00:32:22;;;;;;;21.25;2.78;;;41.80;34.60;;;;;;5118156;27;20108;-52
2021/09/10 00:34:48;;;;;;;15.20;2.70;;;41.70;34.50;;;;;;5119572;27;20099;-51
2021/09/10 00:37:15;;;;;;;16.67;3.10;;;41.60;34.40;;;;;;5115507;27;20060;-51
2021/09/10 00:39:41;;;;;;;12.55;3.13;;;41.60;34.90;;;;;;5113875;27;20035;-52
2021/09/10 00:42:08;;;;;;;15.43;2.95;;;41.60;34.90;;;;;;5111813;27;20075;-48
2021/09/10 00:44:34;;;;;;;16.50;2.70;;;41.50;34.80;;;;;;5116298;27;20074;-50
2021/09/10 00:47:01;;;;;;;11.88;2.70;;;41.40;34.80;;;;;;5113643;27;20107;-52
2021/09/10 00:49:27;;;;;;;7.53;2.33;;;41.40;34.70;;;;;;5114337;27;20687;-48
2021/09/10 00:51:54;;;;;;;12.50;2.88;;;41.30;35.10;;;;;;5114117;27;20165;-52
2021/09/10 00:54:21;;;;;;;13.00;3.00;;;41.20;35.00;;;;;;5114766;27;20066;-52
2021/09/10 00:56:47;;;;;;;13.13;3.25;;;41.30;35.30;;;;;;5116094;27;20070;-52
2021/09/10 00:59:14;;;;;;;17.42;2.70;;;41.10;35.60;;;;;;5111574;27;21641;-52
2021/09/10 01:01:41;;;;;;;20.98;3.47;;;41.10;35.60;;;;;;5118159;27;20072;-48
2021/09/10 01:04:08;;;;;;;13.70;2.78;;;41.00;35.50;;;;;;5093943;27;21117;-51
2021/09/10 01:06:37;;;;;;;13.57;3.72;;;40.90;36.00;;;;;;5111039;27;20071;-49
2021/09/10 01:09:11;;;;;;;12.73;2.72;;;40.90;36.00;;;;;;5091138;27;20161;-53
2021/09/10 01:11:39;;;;;;;20.63;2.67;;;40.90;36.20;;;;;;5112868;27;20148;-49
2021/09/10 01:14:07;;;;;;;15.35;2.80;;;40.80;36.80;;;;;;5111379;27;20098;-52
2021/09/10 01:16:35;;;;;;;17.38;2.67;;;40.70;36.90;;;;;;5092728;28;20076;-53
2021/09/10 01:19:03;;;;;;;13.35;2.60;;;40.80;37.20;;;;;;5115987;27;20540;-51
2021/09/10 01:24:40;;;;;;;22.55;2.88;;;40.70;37.90;;;;;;5102775;27;20211;-52
2021/09/10 01:27:08;;;;;;;19.83;3.72;;;40.50;39.10;;;;;;5114588;27;20082;-54
2021/09/10 01:29:36;;;;;;;12.52;2.80;;;40.40;39.60;;;;;;5110822;27;20072;-51
2021/09/10 01:32:04;;;;;;;19.92;3.08;;;40.30;39.60;;;;;;5113067;27;20533;-50
2021/09/10 01:34:31;;;;;;;28.70;3.53;;;40.20;39.70;;;;;;5094931;27;20158;-52
2021/09/10 01:36:58;;;;;;;22.33;3.30;;;40.00;39.70;;;;;;5118330;27;20135;-53
2021/09/10 01:39:25;;;;;;;21.63;2.95;;;39.90;39.70;;;;;;5109715;27;20108;-49
2021/09/10 01:41:52;;;;;;;22.80;2.92;;;39.80;39.70;;;;;;5109855;27;20094;-51
2021/09/10 01:44:18;;;;;;;22.95;3.38;;;39.70;39.80;;;;;;5110831;27;20092;-52
2021/09/10 01:46:45;;;;;;;11.25;2.67;;;39.70;39.70;;;;;;5109710;27;20564;-49
2021/09/10 01:49:12;;;;;;;22.55;3.53;;;39.60;39.60;;;;;;5109534;27;20525;-51
2021/09/10 01:51:39;;;;;;;32.67;4.60;;;39.50;39.60;;;;;;5111661;27;20486;-49
2021/09/10 01:54:06;;;;;;;25.00;4.88;;;39.50;39.70;;;;;;5113170;27;20092;-53
2021/09/10 01:56:32;;;;;;;30.33;5.32;;;39.40;39.70;;;;;;5112910;27;20079;-49
2021/09/10 01:58:59;;;;;;;24.65;4.55;;;39.40;39.70;;;;;;5106247;27;20088;-48
2021/09/10 02:01:30;;;;;;;25.27;6.88;;;39.30;39.90;;;;;;5115342;27;20071;-49
2021/09/10 02:04:00;;;;;;;37.58;7.40;;;39.20;40.00;;;;;;5111433;27;20156;-49
2021/09/10 02:06:26;;;;;;;41.08;7.60;;;39.20;40.10;;;;;;5113786;27;20509;-52
2021/09/10 02:08:53;;;;;;;39.92;8.85;;;39.10;40.20;;;;;;5111590;27;20087;-53
2021/09/10 02:11:20;;;;;;;35.45;8.70;;;39.10;40.40;;;;;;5113496;27;20330;-50
2021/09/10 02:13:47;;;;;;;39.70;7.57;;;39.00;40.40;;;;;;5117298;27;20080;-52
2021/09/10 02:16:14;;;;;;;36.50;7.25;;;38.90;40.60;;;;;;5117797;27;20515;-50
2021/09/10 02:18:41;;;;;;;27.08;5.97;;;38.90;40.60;;;;;;5118170;27;20090;-49
2021/09/10 02:21:08;;;;;;;25.70;6.82;;;38.80;40.80;;;;;;5114619;27;20448;-48
2021/09/10 02:23:35;;;;;;;34.28;6.95;;;38.70;41.00;;;;;;5098566;27;20418;-51
2021/09/10 02:26:02;;;;;;;29.83;5.05;;;38.70;41.80;;;;;;5111669;27;20155;-48
2021/09/10 02:28:30;;;;;;;26.02;5.78;;;38.60;41.20;;;;;;5114878;27;20076;-48
2021/09/10 02:30:56;;;;;;;32.75;6.15;;;38.60;41.30;;;;;;5113420;27;20435;-48
2021/09/10 02:33:23;;;;;;;32.25;6.43;;;38.50;41.30;;;;;;5110649;27;20111;-47
2021/09/10 02:35:50;;;;;;;29.02;6.00;;;38.40;41.20;;;;;;5112180;27;20072;-51
2021/09/10 02:38:17;;;;;;;33.38;6.35;;;38.30;41.10;;;;;;5113624;28;20078;-50
2021/09/10 02:40:43;;;;;;;27.77;6.70;;;38.30;41.20;;;;;;5112553;28;20099;-49
2021/09/10 02:43:11;;;;;;;30.40;5.68;;;38.30;41.20;;;;;;5111755;28;20072;-49
2021/09/10 02:45:38;;;;;;;33.13;6.03;;;38.30;41.10;;;;;;5113979;28;20072;-49
2021/09/10 02:48:04;;;;;;;18.88;4.45;;;38.20;41.20;;;;;;5109237;28;20410;-51
2021/09/10 02:50:31;;;;;;;29.40;4.45;;;38.20;41.10;;;;;;5118885;28;20076;-49
2021/09/10 02:52:58;;;;;;;28.20;4.68;;;38.10;41.20;;;;;;5119180;28;20072;-52
2021/09/10 02:55:25;;;;;;;28.75;4.82;;;38.10;41.50;;;;;;5117122;28;20139;-51
2021/09/10 02:57:52;;;;;;;31.58;4.50;;;38.00;41.40;;;;;;5111271;28;20084;-53
2021/09/10 03:00:18;;;;;;;18.90;4.07;;;38.00;41.50;;;;;;5112088;28;20124;-50
2021/09/10 03:02:45;;;;;;;18.80;4.35;;;38.00;41.60;;;;;;5121765;27;20429;-54
2021/09/10 03:05:12;;;;;;;23.52;4.55;;;37.90;41.50;;;;;;5125464;27;20159;-49
2021/09/10 03:07:38;;;;;;;18.45;5.15;;;37.80;41.50;;;;;;5117344;27;20073;-50
2021/09/10 03:10:06;;;;;;;21.35;4.32;;;37.80;41.70;;;;;;5098275;28;20068;-52
2021/09/10 03:12:36;;;;;;;27.60;4.72;;;37.80;41.70;;;;;;5121802;27;20584;-50
2021/09/10 03:15:07;;;;;;;28.33;4.60;;;37.70;41.70;;;;;;5117132;27;20128;-50
2021/09/10 03:17:33;;;;;;;14.20;5.10;;;37.70;42.00;;;;;;5118509;27;20167;-53
2021/09/10 03:20:00;;;;;;;27.58;5.35;;;37.70;41.80;;;;;;5120402;27;20121;-50
2021/09/10 03:22:26;;;;;;;12.90;4.60;;;37.60;41.80;;;;;;5118990;27;20125;-49
2021/09/10 03:24:53;;;;;;;26.67;5.00;;;37.60;41.90;;;;;;5123794;27;20116;-49
2021/09/10 03:27:20;;;;;;;22.42;4.82;;;37.50;42.00;;;;;;5117256;27;20064;-50
2021/09/10 03:29:47;;;;;;;20.85;4.38;;;37.50;42.10;;;;;;5119320;27;20162;-53
2021/09/10 03:32:13;;;;;;;31.38;4.88;;;37.50;42.00;;;;;;5120353;27;20076;-49
2021/09/10 03:34:40;;;;;;;38.40;4.70;;;37.40;42.20;;;;;;5121752;27;20646;-51
2021/09/10 03:37:07;;;;;;;39.80;5.00;;;37.40;41.90;;;;;;5122133;27;20067;-49
2021/09/10 03:39:34;;;;;;;26.90;3.88;;;37.30;41.90;;;;;;5119609;27;20099;-53
2021/09/10 03:42:00;;;;;;;27.95;3.72;;;37.30;41.80;;;;;;5122388;27;20083;-49
2021/09/10 03:44:27;;;;;;;20.33;3.83;;;37.30;41.90;;;;;;5119708;27;20076;-51
2021/09/10 03:46:53;;;;;;;26.85;3.30;;;37.20;41.90;;;;;;5118481;27;20483;-51
2021/09/10 03:49:20;;;;;;;27.05;3.80;;;37.20;41.70;;;;;;5116910;27;20084;-50
2021/09/10 03:51:46;;;;;;;23.42;3.58;;;37.10;41.90;;;;;;5121015;27;20132;-49
2021/09/10 03:54:13;;;;;;;19.73;3.92;;;37.10;41.80;;;;;;5116769;27;20092;-51
2021/09/10 03:56:39;;;;;;;23.52;4.00;;;37.10;41.80;;;;;;5123175;27;20080;-48
2021/09/10 03:59:06;;;;;;;22.05;4.13;;;37.10;42.20;;;;;;5121131;27;20099;-51
2021/09/10 04:01:32;;;;;;;30.13;4.20;;;37.00;42.20;;;;;;5123554;27;20071;-53
2021/09/10 04:03:59;;;;;;;14.55;4.28;;;36.90;42.60;;;;;;5099344;27;20093;-52
2021/09/10 04:06:25;;;;;;;30.50;4.40;;;36.80;42.80;;;;;;5118525;27;20072;-52
2021/09/10 04:08:52;;;;;;;21.38;4.03;;;36.80;42.90;;;;;;5120756;27;20111;-50
2021/09/10 04:11:18;;;;;;;26.05;4.95;;;36.80;43.00;;;;;;5116196;27;20075;-51
2021/09/10 04:13:45;;;;;;;22.88;5.60;;;36.70;42.90;;;;;;5114074;27;20068;-52
2021/09/10 04:16:12;;;;;;;26.67;4.95;;;36.70;43.00;;;;;;5117741;27;20573;-51
2021/09/10 04:18:38;;;;;;;16.27;6.20;;;36.60;43.00;;;;;;5115253;27;20077;-52
2021/09/10 04:21:05;;;;;;;32.05;7.80;;;36.60;43.10;;;;;;5116558;27;20084;-52
2021/09/10 04:23:31;;;;;;;24.25;7.95;;;36.50;43.10;;;;;;5111971;27;20141;-53
2021/09/10 04:25:58;;;;;;;34.67;10.80;;;36.50;42.80;;;;;;5115462;27;20087;-47
2021/09/10 04:28:24;;;;;;;30.33;10.20;;;36.60;42.60;;;;;;5115519;27;20073;-54
2021/09/10 04:30:50;;;;;;;26.88;9.70;;;36.50;42.70;;;;;;5119141;27;20082;-47
2021/09/10 04:33:17;;;;;;;33.25;9.57;;;36.50;42.40;;;;;;5097411;27;20562;-49
2021/09/10 04:35:44;;;;;;;39.47;9.63;;;36.50;42.60;;;;;;5120869;27;20069;-49
2021/09/10 04:38:10;;;;;;;32.78;9.15;;;36.50;42.80;;;;;;5118414;27;20526;-52
2021/09/10 04:40:37;;;;;;;25.63;6.80;;;36.50;42.60;;;;;;5110983;27;20092;-53
2021/09/10 04:43:03;;;;;;;34.78;6.57;;;36.50;43.10;;;;;;5119151;27;20072;-51
2021/09/10 04:45:30;;;;;;;23.90;5.78;;;36.40;42.50;;;;;;5099942;27;20080;-52
2021/09/10 04:47:56;;;;;;;26.65;5.68;;;36.40;42.80;;;;;;5118947;27;20107;-48
2021/09/10 04:50:23;;;;;;;23.45;5.03;;;36.40;42.50;;;;;;5118959;27;20076;-51
2021/09/10 04:52:50;;;;;;;21.17;5.05;;;36.40;42.60;;;;;;5117031;27;20167;-50
2021/09/10 04:55:17;;;;;;;17.10;4.95;;;36.30;42.60;;;;;;5115833;27;20082;-51
2021/09/10 04:57:43;;;;;;;21.73;5.70;;;36.30;42.90;;;;;;5118557;27;20088;-47
2021/09/10 05:00:10;;;;;;;29.13;5.85;;;36.20;43.20;;;;;;5118621;27;20087;-50
2021/09/10 05:02:37;;;;;;;22.10;5.68;;;36.20;43.10;;;;;;5117872;27;20563;-52
2021/09/10 05:05:05;;;;;;;27.27;5.03;;;36.20;43.30;;;;;;5117146;27;20069;-52
2021/09/10 05:07:31;;;;;;;20.17;5.18;;;36.10;43.40;;;;;;5112533;27;20369;-51
2021/09/10 05:09:58;;;;;;;19.73;5.15;;;36.10;43.80;;;;;;5119522;27;20080;-51
2021/09/10 05:12:24;;;;;;;23.75;5.15;;;36.00;43.80;;;;;;5117051;27;20105;-52
2021/09/10 05:14:52;;;;;;;20.10;6.15;;;36.00;43.90;;;;;;5102393;27;20087;-48
2021/09/10 05:17:19;;;;;;;20.33;7.35;;;36.00;43.70;;;;;;5117492;27;20075;-50
2021/09/10 05:19:46;;;;;;;23.45;7.90;;;36.00;43.80;;;;;;5114768;27;20103;-50
2021/09/10 05:22:13;;;;;;;24.00;8.13;;;36.00;44.20;;;;;;5116912;27;20088;-48
2021/09/10 05:24:40;;;;;;;23.90;7.10;;;35.90;44.20;;;;;;5119689;27;20075;-52
2021/09/10 05:27:08;;;;;;;25.00;8.45;;;35.80;44.00;;;;;;5119019;27;20555;-53
2021/09/10 05:29:35;;;;;;;24.60;7.13;;;35.80;44.70;;;;;;5115017;27;20083;-51
2021/09/10 05:32:02;;;;;;;17.20;5.07;;;35.70;44.30;;;;;;5113393;27;20113;-52
2021/09/10 05:34:29;;;;;;;24.05;5.53;;;35.70;44.20;;;;;;5117037;27;20112;-47
2021/09/10 05:36:55;;;;;;;30.77;5.57;;;35.70;44.60;;;;;;5117454;27;20120;-50
2021/09/10 05:39:22;;;;;;;19.73;6.55;;;35.70;44.60;;;;;;5114072;27;20455;-53
2021/09/10 05:41:49;;;;;;;25.38;6.75;;;35.40;59.90;;;;;;5116685;27;20496;-51
2021/09/10 05:44:15;;;;;;;21.15;7.03;;;35.60;44.00;;;;;;5111825;27;20121;-49
2021/09/10 05:46:42;;;;;;;29.50;6.63;;;35.60;44.40;;;;;;5116291;27;20076;-49
2021/09/10 05:49:10;;;;;;;30.00;5.97;;;35.50;44.70;;;;;;5116676;27;20079;-50
2021/09/10 05:51:37;;;;;;;19.38;5.82;;;35.50;45.00;;;;;;5117287;27;20083;-50
2021/09/10 05:54:05;;;;;;;26.05;4.95;;;35.40;44.90;;;;;;5114141;27;23246;-49
2021/09/10 05:56:34;;;;;;;23.23;4.85;;;35.40;44.90;;;;;;5114917;27;20079;-50
2021/09/10 05:59:01;;;;;;;29.63;5.57;;;35.30;48.00;;;;;;5112099;27;20107;-48
2021/09/10 06:01:27;;;;;;;29.48;4.40;;;35.40;44.70;;;;;;5099904;27;21317;-49
2021/09/10 06:03:54;;;;;;;27.58;5.53;;;35.30;45.30;;;;;;5110628;27;20076;-49
2021/09/10 06:06:20;;;;;;;26.20;4.57;;;35.30;45.40;;;;;;5109555;27;20487;-49
2021/09/10 06:08:50;;;;;;;20.55;4.70;;;35.20;45.60;;;;;;5111534;27;20078;-50
2021/09/10 06:11:16;;;;;;;20.45;4.25;;;35.10;45.40;;;;;;5097186;28;20068;-49
2021/09/10 06:13:43;;;;;;;14.77;3.75;;;35.10;45.20;;;;;;5112316;27;20076;-51
2021/09/10 06:16:10;;;;;;;25.55;4.15;;;35.00;45.20;;;;;;5115784;27;20157;-50
2021/09/10 06:18:36;;;;;;;22.63;4.70;;;35.00;45.20;;;;;;5098654;28;20257;-49
2021/09/10 06:21:03;;;;;;;28.35;5.00;;;35.00;45.30;;;;;;5112119;27;20094;-49
2021/09/10 06:23:30;;;;;;;19.67;4.60;;;35.00;45.50;;;;;;5113293;27;20603;-50
2021/09/10 06:25:57;;;;;;;23.10;5.50;;;34.90;45.40;;;;;;5115970;27;20084;-48
2021/09/10 06:28:23;;;;;;;24.10;7.20;;;34.80;59.80;;;;;;5114922;27;20067;-48
2021/09/10 06:30:50;;;;;;;28.10;7.45;;;34.80;52.10;;;;;;5097043;27;20163;-48
2021/09/10 06:33:17;;;;;;;35.53;8.15;;;34.80;45.20;;;;;;5114562;27;20103;-48
2021/09/10 06:35:44;;;;;;;24.05;8.30;;;34.70;69.10;;;;;;5109940;27;20069;-49
2021/09/10 06:38:11;;;;;;;27.40;8.43;;;;;;;;;;5110942;27;20120;-47
2021/09/10 06:40:38;;;;;;;29.17;8.00;;;34.70;45.20;;;;;;5113317;27;20099;-50
2021/09/10 06:43:04;;;;;;;27.02;8.27;;;34.70;45.70;;;;;;5116841;28;20067;-53
2021/09/10 06:45:31;;;;;;;34.67;8.80;;;34.70;45.90;;;;;;5114949;28;20507;-51
2021/09/10 06:47:57;;;;;;;36.47;8.52;;;34.60;46.00;;;;;;5111147;28;20092;-50
2021/09/10 06:50:24;;;;;;;26.50;8.05;;;34.60;46.50;;;;;;5114169;28;20195;-53
2021/09/10 06:52:50;;;;;;;28.17;7.75;;;34.50;46.50;;;;;;5111863;28;20080;-49
2021/09/10 06:55:17;;;;;;;33.17;8.00;;;34.40;58.70;;;;;;5112524;28;20042;-47
2021/09/10 06:57:43;;;;;;;27.10;7.22;;;34.40;46.50;;;;;;5111686;28;20028;-52
2021/09/10 07:00:10;;;;;;;28.83;6.70;;;34.20;58.30;;;;;;5108849;28;20039;-48
2021/09/10 07:02:37;;;;;;;27.95;6.47;;;34.10;84.80;;;;;;5113527;28;20094;-50
2021/09/10 07:05:04;;;;;;;22.95;5.43;;;34.00;60.00;;;;;;5112388;28;20076;-49
2021/09/10 07:07:31;;;;;;;17.65;5.82;;;34.10;60.70;;;;;;5094632;28;20032;-51
2021/09/10 07:09:58;;;;;;;26.50;5.53;;;34.10;47.30;;;;;;5094135;28;20512;-47
2021/09/10 07:12:24;;;;;;;28.63;5.45;;;34.10;47.30;;;;;;5113789;28;20174;-49
2021/09/10 07:14:51;;;;;;;29.17;6.40;;;34.10;48.30;;;;;;5110784;28;20087;-51
2021/09/10 07:17:17;;;;;;;19.45;7.13;;;34.00;48.00;;;;;;5113396;28;20065;-48
2021/09/10 07:19:44;;;;;;;26.13;8.50;;;33.90;48.20;;;;;;5115169;28;20100;-53
2021/09/10 07:22:10;;;;;;;30.15;8.85;;;33.80;48.30;;;;;;5115818;28;20163;-50
2021/09/10 07:24:37;;;;;;;35.72;9.75;;;33.80;48.10;;;;;;5112605;28;20111;-47
2021/09/10 07:27:03;;;;;;;29.20;10.48;;;33.80;48.10;;;;;;5114007;28;20068;-50
2021/09/10 07:29:30;;;;;;;28.17;9.60;;;33.80;48.30;;;;;;5111583;28;20163;-53
2021/09/10 07:31:57;;;;;;;27.83;10.02;;;33.80;48.00;;;;;;5112735;28;20068;-52
2021/09/10 07:34:23;;;;;;;26.52;11.02;;;33.80;47.90;;;;;;5110291;28;20108;-50
2021/09/10 07:36:51;;;;;;;28.08;12.20;;;33.80;48.60;;;;;;5113678;28;20452;-51
2021/09/10 07:39:22;;;;;;;21.42;11.70;;;33.70;48.80;;;;;;5116326;28;20515;-49
2021/09/10 07:41:49;;;;;;;34.33;12.18;;;33.80;49.10;;;;;;5112758;28;20159;-52
2021/09/10 07:44:17;;;;;;;28.92;12.77;;;33.70;48.90;;;;;;5111414;28;20082;-52
2021/09/10 07:46:46;;;;;;;19.67;10.85;;;33.60;49.50;;;;;;5113520;28;20069;-49
2021/09/10 07:49:13;;;;;;;17.35;7.05;;;33.50;50.00;;;;;;5112704;27;20102;-50
2021/09/10 07:51:40;;;;;;;20.42;7.50;;;33.40;49.30;;;;;;5114747;27;20068;-48
2021/09/10 07:54:07;;;;;;;19.73;6.78;;;33.40;50.10;;;;;;5116274;27;20158;-49
2021/09/10 07:56:33;;;;;;;18.27;6.53;;;33.30;50.10;;;;;;5114690;27;20422;-49
2021/09/10 07:59:00;;;;;;;15.20;4.22;;;33.30;50.40;;;;;;5115644;27;20129;-51
2021/09/10 08:01:26;;;;;;;12.07;3.70;;;33.20;50.40;;;;;;5115890;27;20120;-51
2021/09/10 08:03:53;;;;;;;17.40;4.43;;;33.20;50.50;;;;;;5117654;27;20150;-52
2021/09/10 08:06:20;;;;;;;13.65;4.68;;;;;;;;;;5118068;27;20055;-48
2021/09/10 08:08:46;;;;;;;18.08;5.32;;;33.10;75.40;;;;;;5118345;27;20020;-48
2021/09/10 08:11:13;;;;;;;17.38;4.88;;;33.10;50.80;;;;;;5115837;27;20079;-48
2021/09/10 08:13:39;;;;;;;14.07;5.10;;;33.10;51.30;;;;;;5111288;27;20064;-49
2021/09/10 08:16:06;;;;;;;23.27;6.43;;;33.10;50.90;;;;;;5116087;27;20106;-50
2021/09/10 08:18:33;;;;;;;16.38;5.53;;;33.10;51.10;;;;;;5115338;27;20072;-50
2021/09/10 08:20:59;;;;;;;21.05;6.10;;;33.10;51.10;;;;;;5116833;27;20095;-48
2021/09/10 08:23:26;;;;;;;17.83;5.25;;;33.00;51.30;;;;;;5117547;27;20068;-47
2021/09/10 08:25:53;;;;;;;20.75;5.50;;;33.00;51.30;;;;;;5117397;27;20088;-50
2021/09/10 08:28:20;;;;;;;18.90;5.88;;;33.00;52.50;;;;;;5114602;27;21327;-52
2021/09/10 08:30:48;;;;;;;14.80;4.80;;;32.90;52.50;;;;;;5119942;27;20577;-52
2021/09/10 08:33:15;;;;;;;13.77;5.13;;;32.80;52.20;;;;;;5115736;27;20565;-49
2021/09/10 08:35:42;;;;;;;12.10;5.00;;;32.90;52.60;;;;;;5113138;27;20510;-53
2021/09/10 08:38:10;;;;;;;10.45;3.83;;;32.80;53.30;;;;;;5116637;27;20434;-52
2021/09/10 08:40:36;;;;;;;9.88;3.85;;;32.70;53.90;;;;;;5116280;27;20182;-53
2021/09/10 08:43:03;;;;;;;14.32;3.97;;;32.60;54.20;;;;;;5112421;27;20072;-48
2021/09/10 08:45:30;;;;;;;14.50;3.88;;;32.60;54.30;;;;;;5117788;27;20506;-49
2021/09/10 08:47:57;;;;;;;13.98;4.07;;;32.50;54.80;;;;;;5115616;27;20095;-48
2021/09/10 08:50:25;;;;;;;19.35;4.22;;;32.50;55.50;;;;;;5117819;27;20075;-49
2021/09/10 08:52:52;;;;;;;8.48;2.92;;;32.40;55.70;;;;;;5113106;27;20076;-52
2021/09/10 08:55:19;;;;;;;15.65;3.47;;;32.10;87.10;;;;;;5116749;27;20076;-50
2021/09/10 08:57:55;;;;;;;10.07;3.85;;;32.30;58.10;;;;;;5113234;27;20448;-51
2021/09/10 09:00:30;;;;;;;9.40;3.33;;;32.20;73.60;;;;;;5114457;27;20142;-49
2021/09/10 09:03:11;;;;;;;10.57;3.20;;;32.30;58.90;;;;;;5109947;27;20421;-48
2021/09/10 09:05:39;;;;;;;11.93;3.33;;;32.20;84.50;;;;;;5115452;27;20068;-52
2021/09/10 09:08:16;;;;;;;20.42;3.72;;;32.20;58.20;;;;;;5116431;27;20457;-51
2021/09/10 09:10:58;;;;;;;8.57;3.08;;;32.00;66.20;;;;;;5112787;27;20114;-48
2021/09/10 09:13:29;;;;;;;9.77;3.30;;;32.00;59.30;;;;;;5112120;27;20072;-51
2021/09/10 09:16:21;;;;;;;11.98;3.65;;;32.00;59.00;;;;;;5113342;27;20099;-48
2021/09/10 09:18:59;;;;;;;13.63;3.70;;;32.00;59.50;;;;;;5114531;27;20064;-51
2021/09/10 09:21:44;;;;;;;13.98;3.88;;;31.90;59.90;;;;;;5113584;27;20084;-48
2021/09/10 09:24:21;;;;;;;19.02;4.22;;;31.90;59.90;;;;;;5115297;27;20540;-48
2021/09/10 09:26:52;;;;;;;15.60;3.50;;;31.90;59.50;;;;;;5114951;27;20076;-49
2021/09/10 09:29:21;;;;;;;14.82;3.42;;;31.90;59.30;;;;;;5116412;27;20096;-49
2021/09/10 09:31:56;;;;;;;9.70;3.17;;;31.90;59.10;;;;;;5118058;27;20075;-51
2021/09/10 09:34:45;;;;;;;10.40;3.60;;;31.70;59.40;;;;;;5112783;27;20556;-49
2021/09/10 09:37:16;;;;;;;13.23;3.42;;;31.60;60.90;;;;;;5113295;27;20142;-48
2021/09/10 09:39:52;;;;;;;12.85;3.63;;;31.70;61.30;;;;;;5118788;27;20119;-52
2021/09/10 09:42:33;;;;;;;11.05;3.13;;;31.70;61.60;;;;;;5116966;27;20103;-52
2021/09/10 09:45:25;;;;;;;17.25;3.78;;;31.70;62.50;;;;;;5113867;27;20096;-50
2021/09/10 09:47:51;;;;;;;8.35;3.05;;;31.50;62.50;;;;;;5114226;27;20076;-53
2021/09/10 09:50:20;;;;;;;12.75;3.08;;;31.50;63.70;;;;;;5114018;27;20083;-54
2021/09/10 09:52:51;;;;;;;14.70;3.30;;;31.40;64.50;;;;;;5117758;27;20207;-48
2021/09/10 09:55:18;;;;;;;14.77;3.70;;;31.30;66.00;;;;;;5114627;27;20092;-49
2021/09/10 09:57:45;;;;;;;12.70;2.95;;;31.30;66.30;;;;;;5114342;27;20492;-50
2021/09/10 10:00:13;;;;;;;10.50;2.45;;;31.40;66.50;;;;;;5113361;27;20664;-50
2021/09/10 10:02:39;;;;;;;13.57;3.15;;;31.30;66.80;;;;;;5116919;27;20432;-53
2021/09/10 10:05:08;;;;;;;7.07;2.40;;;31.30;67.30;;;;;;5115963;27;20076;-52
2021/09/10 10:08:01;;;;;;;7.75;2.60;;;31.40;67.60;;;;;;5114963;27;20075;-47
2021/09/10 10:10:50;;;;;;;11.38;2.50;;;31.40;67.30;;;;;;5116819;27;20174;-53
2021/09/10 10:13:25;;;;;;;9.05;2.50;;;31.40;67.80;;;;;;5112586;27;20159;-50
2021/09/10 10:15:53;;;;;;;9.10;2.67;;;31.20;68.40;;;;;;5117048;27;20106;-50
2021/09/10 10:18:43;;;;;;;11.52;2.85;;;31.20;69.30;;;;;;5117363;27;20160;-54
2021/09/10 10:21:12;;;;;;;10.10;3.17;;;31.30;69.50;;;;;;5115477;27;20100;-47
2021/09/10 10:23:44;;;;;;;7.57;2.38;;;31.30;69.40;;;;;;5112443;27;20110;-52
2021/09/10 10:26:30;;;;;;;6.50;2.70;;;31.40;69.90;;;;;;5113403;27;20091;-49
2021/09/10 10:29:16;;;;;;;8.53;2.87;;;31.20;69.70;;;;;;5112975;27;20510;-53
2021/09/10 10:32:03;;;;;;;8.52;2.65;;;31.10;70.20;;;;;;5114750;27;20350;-47
2021/09/10 10:34:31;;;;;;;7.88;2.80;;;31.10;70.30;;;;;;5111557;28;20118;-49
2021/09/10 10:36:58;;;;;;;7.65;2.33;;;31.10;70.50;;;;;;5094510;28;20393;-49
2021/09/10 10:39:27;;;;;;;6.13;2.20;;;31.20;70.20;;;;;;5113304;27;21594;-49
2021/09/10 10:41:57;;;;;;;16.02;2.67;;;31.20;70.60;;;;;;5112103;27;20166;-51
2021/09/10 10:44:33;;;;;;;12.98;2.47;;;31.20;70.10;;;;;;5116284;28;20482;-51
2021/09/10 10:47:08;;;;;;;7.83;2.67;;;31.20;70.40;;;;;;5112345;28;20546;-50
2021/09/10 10:49:42;;;;;;;6.57;2.70;;;31.20;70.90;;;;;;5113332;28;20343;-47
2021/09/10 10:52:24;;;;;;;7.28;2.55;;;31.10;71.20;;;;;;5100208;28;20072;-51
2021/09/10 10:55:15;;;;;;;12.77;2.38;;;31.10;71.90;;;;;;5111086;28;20613;-51
2021/09/10 10:57:41;;;;;;;11.10;2.40;;;31.00;72.20;;;;;;5113050;28;20558;-51
2021/09/10 11:00:26;;;;;;;6.18;2.40;;;30.90;73.90;;;;;;5112492;28;20099;-51
2021/09/10 11:03:18;;;;;;;5.25;2.22;;;30.90;74.50;;;;;;5111970;28;20482;-49
2021/09/10 11:05:50;;;;;;;9.50;2.97;;;30.90;75.20;;;;;;5111564;28;20132;-50
2021/09/10 11:08:42;;;;;;;6.93;2.50;;;30.90;75.00;;;;;;5114643;28;20500;-49
2021/09/10 11:11:09;;;;;;;7.72;2.40;;;30.80;74.00;;;;;;5115173;28;20551;-50
2021/09/10 11:13:42;;;;;;;10.80;2.15;;;30.80;74.80;;;;;;5113215;28;20096;-52
2021/09/10 11:16:09;;;;;;;12.55;2.75;;;30.80;75.40;;;;;;5113568;28;20201;-47
2021/09/10 11:18:38;;;;;;;7.35;2.22;;;30.90;75.30;;;;;;5112932;28;20159;-52
2021/09/10 11:21:09;;;;;;;8.18;2.40;;;30.80;74.90;;;;;;5116797;28;20127;-50
2021/09/10 11:23:39;;;;;;;11.15;2.63;;;30.90;75.10;;;;;;5111476;27;20075;-51
2021/09/10 11:26:09;;;;;;;11.00;2.50;;;30.80;76.70;;;;;;5116010;27;20428;-50
2021/09/10 11:28:37;;;;;;;12.95;2.55;;;30.70;76.10;;;;;;5119559;27;20529;-52
2021/09/10 11:31:04;;;;;;;9.70;2.50;;;30.60;76.20;;;;;;5119318;27;20122;-49
2021/09/10 11:33:51;;;;;;;8.80;2.95;;;30.60;76.80;;;;;;5120321;27;20120;-49
2021/09/10 11:36:25;;;;;;;11.05;2.58;;;30.60;75.50;;;;;;5117068;27;20111;-47
2021/09/10 11:39:03;;;;;;;10.20;2.67;;;30.60;75.10;;;;;;5113771;27;20148;-48
2021/09/10 11:41:31;;;;;;;9.43;2.40;;;30.60;75.60;;;;;;5111085;27;20494;-48
2021/09/10 11:44:08;;;;;;;9.70;2.75;;;30.60;75.30;;;;;;5119122;27;20067;-51
2021/09/10 11:46:35;;;;;;;8.40;2.60;;;30.50;76.00;;;;;;5113884;27;20160;-49
2021/09/10 11:49:02;;;;;;;9.88;2.80;;;30.50;76.90;;;;;;5117388;27;20093;-45
2021/09/10 11:51:48;;;;;;;5.82;2.45;;;30.50;77.80;;;;;;5116712;27;20076;-52
2021/09/10 11:54:20;;;;;;;13.38;3.05;;;30.50;79.00;;;;;;5114164;27;20155;-51
2021/09/10 11:56:48;;;;;;;7.00;2.60;;;30.50;79.20;;;;;;5114273;27;20080;-51
2021/09/10 11:59:19;;;;;;;8.90;2.42;;;30.50;80.00;;;;;;5115606;27;20071;-52
2021/09/10 12:01:46;;;;;;;8.60;2.45;;;30.50;79.50;;;;;;5116470;27;20202;-52
2021/09/10 12:04:29;;;;;;;7.13;2.67;;;30.50;79.40;;;;;;5121158;27;20450;-51
2021/09/10 12:06:58;;;;;;;9.07;2.53;;;30.50;79.60;;;;;;5116975;27;20464;-53
2021/09/10 12:09:26;;;;;;;6.63;2.33;;;30.50;79.90;;;;;;5117083;27;20072;-49
2021/09/10 12:11:55;;;;;;;10.07;2.42;;;30.40;80.40;;;;;;5118078;27;20084;-51
2021/09/10 12:14:38;;;;;;;11.23;2.35;;;30.40;80.80;;;;;;5113561;27;20081;-54
2021/09/10 12:17:24;;;;;;;8.40;2.60;;;30.50;81.70;;;;;;5114823;27;20076;-53
2021/09/10 12:20:08;;;;;;;12.23;2.87;;;30.50;81.60;;;;;;5117754;27;20095;-53
2021/09/10 12:22:42;;;;;;;8.00;2.53;;;30.40;81.30;;;;;;5118864;27;20080;-49
2021/09/10 12:25:34;;;;;;;8.43;2.30;;;30.30;82.40;;;;;;5115524;27;20068;-48
2021/09/10 12:28:07;;;;;;;9.63;2.97;;;30.40;82.00;;;;;;5112508;27;20084;-50
2021/09/10 12:30:36;;;;;;;7.13;3.20;;;30.40;81.60;;;;;;5116588;27;20588;-51
2021/09/10 12:33:03;;;;;;;10.82;3.88;;;30.20;82.20;;;;;;5111704;27;20088;-48
2021/09/10 12:35:31;;;;;;;10.98;4.30;;;30.20;82.70;;;;;;5115576;27;20167;-49
2021/09/10 12:38:00;;;;;;;13.35;4.93;;;30.20;82.90;;;;;;5116853;27;20552;-47
2021/09/10 12:40:28;;;;;;;11.38;4.70;;;30.20;83.30;;;;;;5111502;27;20175;-50
2021/09/10 12:42:56;;;;;;;10.18;4.30;;;30.10;83.60;;;;;;5119427;27;20076;-50
2021/09/10 12:45:23;;;;;;;13.02;3.70;;;30.10;84.30;;;;;;5116855;27;20098;-51
2021/09/10 12:47:50;;;;;;;8.88;3.58;;;30.10;85.00;;;;;;5114891;27;20164;-49
2021/09/10 12:50:17;;;;;;;13.23;3.00;;;30.10;85.30;;;;;;5115265;27;20497;-51